createdAt,value
2022-08-16T00:01:41.144Z,7.57
2022-08-16T00:04:12.430Z,6.78
2022-08-16T00:06:40.329Z,5.80
2022-08-16T00:09:10.761Z,5.97
2022-08-16T00:11:39.347Z,6.72
2022-08-16T00:14:11.696Z,6.10
2022-08-16T00:17:01.026Z,6.72
2022-08-16T00:19:41.188Z,7.10
2022-08-16T00:22:13.694Z,6.40
2022-08-16T00:24:46.975Z,6.65
2022-08-16T00:27:15.131Z,6.30
2022-08-16T00:29:42.951Z,6.40
2022-08-16T00:32:17.808Z,6.13
2022-08-16T00:34:53.295Z,6.63
2022-08-16T00:37:25.067Z,6.07
2022-08-16T00:40:34.530Z,5.93
2022-08-16T00:43:02.528Z,5.78
2022-08-16T00:45:38.652Z,6.10
2022-08-16T00:48:31.168Z,6.07
2022-08-16T00:51:00.957Z,6.03
2022-08-16T00:53:30.779Z,5.70
2022-08-16T00:56:05.500Z,5.97
2022-08-16T00:58:35.442Z,5.88
2022-08-16T01:01:08.210Z,6.10
2022-08-16T01:03:41.643Z,7.05
2022-08-16T01:06:40.125Z,6.22
2022-08-16T01:09:01.611Z,6.45
2022-08-16T01:11:32.473Z,7.18
2022-08-16T01:14:30.045Z,6.38
2022-08-16T01:16:59.895Z,6.73
2022-08-16T01:19:40.897Z,6.82
2022-08-16T01:22:47.391Z,6.38
2022-08-16T01:25:10.372Z,6.72
2022-08-16T01:30:19.422Z,6.35
2022-08-16T01:33:01.580Z,6.40
2022-08-16T01:35:57.258Z,6.20
2022-08-16T01:41:26.036Z,7.28
2022-08-16T01:44:00.752Z,6.10
2022-08-16T01:46:40.130Z,7.57
2022-08-16T01:49:13.247Z,7.20
2022-08-16T01:51:44.095Z,7.32
2022-08-16T01:54:13.372Z,7.80
2022-08-16T01:56:43.138Z,8.00
2022-08-16T01:59:15.874Z,7.97
2022-08-16T02:01:52.522Z,9.07
2022-08-16T02:04:49.149Z,8.35
2022-08-16T02:07:13.100Z,8.43
2022-08-16T02:09:41.517Z,8.63
2022-08-16T02:12:49.769Z,8.80
2022-08-16T02:14:57.604Z,8.57
2022-08-16T02:17:28.419Z,9.77
2022-08-16T02:19:58.520Z,9.25
2022-08-16T02:22:34.888Z,9.20
2022-08-16T02:25:11.634Z,9.02
2022-08-16T02:27:44.673Z,9.98
2022-08-16T02:30:36.923Z,10.18
2022-08-16T02:33:10.520Z,10.10
2022-08-16T02:35:49.687Z,9.20
2022-08-16T02:38:22.866Z,9.40
2022-08-16T02:40:51.571Z,10.68
2022-08-16T02:43:26.941Z,9.80
2022-08-16T02:45:58.835Z,9.93
2022-08-16T02:48:30.635Z,9.55
2022-08-16T02:51:06.476Z,12.75
2022-08-16T02:53:49.108Z,11.63
2022-08-16T02:56:19.131Z,10.82
2022-08-16T02:58:49.506Z,10.13
2022-08-16T03:01:24.735Z,10.07
2022-08-16T03:04:39.639Z,11.43
2022-08-16T03:06:56.446Z,12.13
2022-08-16T03:09:28.714Z,12.70
2022-08-16T03:11:57.481Z,14.65
2022-08-16T03:14:25.366Z,15.35
2022-08-16T03:17:00.213Z,14.50
2022-08-16T03:19:47.037Z,12.63
2022-08-16T03:22:28.368Z,16.35
2022-08-16T03:24:58.843Z,16.38
2022-08-16T03:27:31.009Z,17.52
2022-08-16T03:30:16.169Z,16.67
2022-08-16T03:32:51.232Z,16.05
2022-08-16T03:35:22.936Z,17.83
2022-08-16T03:38:02.805Z,17.50
2022-08-16T03:40:34.434Z,15.68
2022-08-16T03:43:19.918Z,17.60
2022-08-16T03:45:52.734Z,14.88
2022-08-16T03:48:36.576Z,15.82
2022-08-16T03:51:09.712Z,17.45
2022-08-16T03:53:40.719Z,14.43
2022-08-16T03:56:19.501Z,14.75
2022-08-16T03:58:50.900Z,15.13
2022-08-16T04:01:19.996Z,17.63
2022-08-16T04:03:47.369Z,18.23
2022-08-16T04:06:17.841Z,16.58
2022-08-16T04:08:45.557Z,18.73
2022-08-16T04:11:16.415Z,16.40
2022-08-16T04:14:00.680Z,15.40
2022-08-16T04:16:33.677Z,15.23
2022-08-16T04:19:04.375Z,15.40
2022-08-16T04:21:34.672Z,14.63
2022-08-16T04:24:03.289Z,16.45
2022-08-16T04:26:32.192Z,15.68
2022-08-16T04:29:17.132Z,18.90
2022-08-16T04:31:56.576Z,15.27
2022-08-16T04:34:30.861Z,14.80
2022-08-16T04:37:01.557Z,14.77
2022-08-16T04:39:36.708Z,14.95
2022-08-16T04:42:17.729Z,15.50
2022-08-16T04:44:54.169Z,15.95
2022-08-16T04:47:31.445Z,16.80
2022-08-16T04:50:06.829Z,17.67
2022-08-16T04:52:36.076Z,16.60
2022-08-16T04:55:11.720Z,15.07
2022-08-16T04:57:41.394Z,15.73
2022-08-16T05:00:32.492Z,15.75
2022-08-16T05:03:08.269Z,14.02
2022-08-16T05:05:45.108Z,15.45
2022-08-16T05:08:28.118Z,16.02
2022-08-16T05:11:05.223Z,16.40
2022-08-16T05:13:40.768Z,16.13
2022-08-16T05:18:51.608Z,16.48
2022-08-16T05:21:21.359Z,14.80
2022-08-16T05:23:55.538Z,16.15
2022-08-16T05:26:30.160Z,15.75
2022-08-16T05:28:59.044Z,14.77
2022-08-16T05:31:29.872Z,14.82
2022-08-16T05:34:00.346Z,16.30
2022-08-16T05:36:33.821Z,15.80
2022-08-16T05:39:05.547Z,16.70
2022-08-16T05:41:33.215Z,15.75
2022-08-16T05:44:23.051Z,15.82
2022-08-16T05:47:00.017Z,17.13
2022-08-16T05:49:39.879Z,16.23
2022-08-16T05:52:10.714Z,18.65
2022-08-16T05:54:47.288Z,15.70
2022-08-16T05:57:17.694Z,16.70
2022-08-16T05:59:50.543Z,15.10
2022-08-16T06:02:30.728Z,18.05
2022-08-16T06:05:02.031Z,17.50
2022-08-16T06:07:29.723Z,19.13
2022-08-16T06:10:00.312Z,17.95
2022-08-16T06:12:29.676Z,17.27
2022-08-16T06:15:04.172Z,14.93
2022-08-16T06:17:43.036Z,19.30
2022-08-16T06:20:24.051Z,18.98
2022-08-16T06:22:59.046Z,17.38
2022-08-16T06:25:36.336Z,18.02
2022-08-16T06:28:16.964Z,16.90
2022-08-16T06:30:59.189Z,15.45
2022-08-16T06:33:29.458Z,17.15
2022-08-16T06:36:09.956Z,17.27
2022-08-16T06:38:39.067Z,18.23
2022-08-16T06:41:27.533Z,13.73
2022-08-16T06:43:57.517Z,17.70
2022-08-16T06:46:35.083Z,16.83
2022-08-16T06:49:06.960Z,17.67
2022-08-16T06:51:46.705Z,16.30
2022-08-16T06:54:16.823Z,15.95
2022-08-16T06:56:44.531Z,15.73
2022-08-16T06:59:13.264Z,17.15
2022-08-16T07:01:45.086Z,15.65
2022-08-16T07:04:32.506Z,16.70
2022-08-16T07:07:09.546Z,14.88
2022-08-16T07:09:37.697Z,14.45
2022-08-16T07:12:05.799Z,16.17
2022-08-16T07:14:36.204Z,16.50
2022-08-16T07:17:08.367Z,17.13
2022-08-16T07:20:29.514Z,15.07
2022-08-16T07:22:52.385Z,16.42
2022-08-16T07:25:16.781Z,16.35
2022-08-16T07:27:44.494Z,13.23
2022-08-16T07:30:45.465Z,13.93
2022-08-16T07:33:07.064Z,16.60
2022-08-16T07:35:34.695Z,15.57
2022-08-16T07:38:04.546Z,13.70
2022-08-16T07:40:59.780Z,14.82
2022-08-16T07:43:23.046Z,13.35
2022-08-16T07:45:53.173Z,14.77
2022-08-16T07:48:21.689Z,16.92
2022-08-16T07:50:57.103Z,16.60
2022-08-16T07:53:32.009Z,13.30
2022-08-16T07:56:00.794Z,17.15
2022-08-16T07:58:34.122Z,13.65
2022-08-16T08:01:10.911Z,11.68
2022-08-16T08:03:48.280Z,14.38
2022-08-16T08:06:25.007Z,11.43
2022-08-16T08:08:57.475Z,13.30
2022-08-16T08:11:28.570Z,14.18
2022-08-16T08:14:03.202Z,12.73
2022-08-16T08:16:32.683Z,14.55
2022-08-16T08:19:02.860Z,16.92
2022-08-16T08:21:58.524Z,15.38
2022-08-16T08:24:22.705Z,14.68
2022-08-16T08:27:02.418Z,10.73
2022-08-16T08:29:37.807Z,12.85
2022-08-16T08:32:57.426Z,14.20
2022-08-16T08:35:00.469Z,12.05
2022-08-16T08:37:54.143Z,12.65
2022-08-16T08:40:24.190Z,14.65
2022-08-16T08:42:57.996Z,12.77
2022-08-16T08:48:33.064Z,10.52
2022-08-16T08:51:09.000Z,19.80
2022-08-16T08:53:37.866Z,20.77
2022-08-16T08:56:23.464Z,13.35
2022-08-16T08:58:59.070Z,13.05
2022-08-16T09:01:36.907Z,9.55
2022-08-16T09:04:14.599Z,9.98
2022-08-16T09:06:45.563Z,10.93
2022-08-16T09:09:17.178Z,9.50
2022-08-16T09:11:52.400Z,9.40
2022-08-16T09:14:32.968Z,11.70
2022-08-16T09:17:03.314Z,11.73
2022-08-16T09:19:34.630Z,10.80
2022-08-16T09:22:02.272Z,10.82
2022-08-16T09:24:46.648Z,11.95
2022-08-16T09:27:18.055Z,11.43
2022-08-16T09:29:46.713Z,13.25
2022-08-16T09:32:28.628Z,14.88
2022-08-16T09:34:59.001Z,12.57
2022-08-16T09:37:29.629Z,14.68
2022-08-16T09:39:59.706Z,16.48
2022-08-16T09:42:30.967Z,15.68
2022-08-16T09:45:18.752Z,17.13
2022-08-16T09:47:56.652Z,16.58
2022-08-16T09:50:33.196Z,16.52
2022-08-16T09:53:15.456Z,15.30
2022-08-16T09:55:49.512Z,15.68
2022-08-16T09:58:40.811Z,14.95
2022-08-16T10:01:08.435Z,13.18
2022-08-16T10:03:37.263Z,15.32
2022-08-16T10:06:26.237Z,14.52
2022-08-16T10:09:08.399Z,15.68
2022-08-16T10:12:11.035Z,14.48
2022-08-16T10:14:40.769Z,14.27
2022-08-16T10:17:14.654Z,15.50
2022-08-16T10:19:43.340Z,16.60
2022-08-16T10:22:12.682Z,18.30
2022-08-16T10:24:59.333Z,18.15
2022-08-16T10:27:30.040Z,17.63
2022-08-16T10:30:25.859Z,17.92
2022-08-16T10:32:57.308Z,21.02
2022-08-16T10:35:32.952Z,20.77
2022-08-16T10:38:01.767Z,21.60
2022-08-16T10:40:34.508Z,21.65
2022-08-16T10:43:01.960Z,19.85
2022-08-16T10:45:36.964Z,21.05
2022-08-16T10:48:27.813Z,17.92
2022-08-16T10:50:58.914Z,19.05
2022-08-16T10:53:32.736Z,20.75
2022-08-16T10:56:44.247Z,18.95
2022-08-16T10:59:32.348Z,20.98
2022-08-16T11:02:21.845Z,18.63
2022-08-16T11:13:20.803Z,13.60
2022-08-16T11:15:55.714Z,13.68
2022-08-16T11:18:48.996Z,15.70
2022-08-16T11:21:29.453Z,14.32
2022-08-16T11:23:59.097Z,15.10
2022-08-16T11:26:28.758Z,15.38
2022-08-16T11:29:14.043Z,14.50
2022-08-16T11:31:45.823Z,15.55
2022-08-16T11:34:21.276Z,14.93
2022-08-16T11:36:53.884Z,17.33
2022-08-16T11:39:31.883Z,23.38
2022-08-16T11:42:03.062Z,22.20
2022-08-16T11:44:52.586Z,22.65
2022-08-16T11:47:20.969Z,22.00
2022-08-16T11:49:48.566Z,22.63
2022-08-16T11:52:18.036Z,20.23
2022-08-16T11:54:53.958Z,20.05
2022-08-16T11:57:24.614Z,17.77
2022-08-16T11:59:54.903Z,15.25
2022-08-16T12:02:32.310Z,15.85
2022-08-16T12:05:00.908Z,16.20
2022-08-16T12:07:29.372Z,14.10
2022-08-16T12:10:04.547Z,13.77
2022-08-16T12:12:32.752Z,15.20
2022-08-16T12:15:01.941Z,13.68
2022-08-16T12:17:32.333Z,13.82
2022-08-16T12:20:02.132Z,11.05
2022-08-16T12:22:36.535Z,10.90
2022-08-16T12:25:09.020Z,10.10
2022-08-16T12:27:39.264Z,12.02
2022-08-16T12:30:09.108Z,10.32
2022-08-16T12:32:53.024Z,10.93
2022-08-16T12:35:24.692Z,8.40
2022-08-16T12:37:56.620Z,7.97
2022-08-16T12:40:30.310Z,7.65
2022-08-16T12:43:00.879Z,7.40
2022-08-16T12:45:34.534Z,7.60
2022-08-16T12:48:33.820Z,5.88
2022-08-16T12:51:13.666Z,6.22
2022-08-16T12:53:51.817Z,5.97
2022-08-16T12:56:21.582Z,6.72
2022-08-16T12:58:55.900Z,6.22
2022-08-16T13:01:27.107Z,5.80
2022-08-16T13:04:12.180Z,5.63
2022-08-16T13:06:44.969Z,6.55
2022-08-16T13:09:37.884Z,7.00
2022-08-16T13:14:50.089Z,8.30
2022-08-16T13:17:26.320Z,8.25
2022-08-16T13:20:11.430Z,8.52
2022-08-16T13:22:50.147Z,7.75
2022-08-16T13:25:24.063Z,6.80
2022-08-16T13:28:02.495Z,7.00
2022-08-16T13:30:41.860Z,6.60
2022-08-16T13:33:15.793Z,6.28
2022-08-16T13:35:56.556Z,7.20
2022-08-16T13:38:27.492Z,7.55
2022-08-16T13:40:58.786Z,7.05
2022-08-16T13:43:29.133Z,8.20
2022-08-16T13:46:02.835Z,7.63
2022-08-16T13:48:37.132Z,8.00
2022-08-16T13:51:15.868Z,9.77
2022-08-16T13:53:54.791Z,8.45
2022-08-16T13:56:39.553Z,9.38
2022-08-16T13:59:19.972Z,9.15
2022-08-16T14:01:55.272Z,8.65
2022-08-16T14:04:27.102Z,9.85
2022-08-16T14:06:57.477Z,8.82
2022-08-16T14:09:27.298Z,6.70
2022-08-16T14:11:58.084Z,5.78
2022-08-16T14:14:30.363Z,5.80
2022-08-16T14:17:02.320Z,5.00
2022-08-16T14:19:33.290Z,4.00
2022-08-16T14:22:14.554Z,4.35
2022-08-16T14:24:52.668Z,4.43
2022-08-16T14:27:23.031Z,4.30
2022-08-16T14:29:53.033Z,4.38
2022-08-16T14:32:33.314Z,5.03
2022-08-16T14:35:08.266Z,4.28
2022-08-16T14:37:38.072Z,4.18
2022-08-16T14:40:07.796Z,4.03
2022-08-16T14:42:36.710Z,4.38
2022-08-16T14:45:07.672Z,4.22
2022-08-16T14:47:39.289Z,4.60
2022-08-16T14:50:16.481Z,4.25
2022-08-16T14:52:56.362Z,4.32
2022-08-16T14:55:27.978Z,4.32
2022-08-16T14:57:55.819Z,4.85
2022-08-16T15:00:27.172Z,4.47
2022-08-16T15:03:05.723Z,4.57
2022-08-16T15:05:35.016Z,4.97
2022-08-16T15:08:03.234Z,5.28
2022-08-16T15:10:32.164Z,5.13
2022-08-16T15:13:01.404Z,4.53
2022-08-16T15:15:30.043Z,4.32
2022-08-16T15:17:57.809Z,3.97
2022-08-16T15:20:31.199Z,4.25
2022-08-16T15:23:01.789Z,4.70
2022-08-16T15:25:33.820Z,5.10
2022-08-16T15:28:04.759Z,5.80
2022-08-16T15:30:56.805Z,5.65
2022-08-16T15:33:27.407Z,5.97
2022-08-16T15:35:58.544Z,6.03
2022-08-16T15:38:58.190Z,7.00
2022-08-16T15:41:39.045Z,8.65
2022-08-16T15:44:42.698Z,6.38
2022-08-16T15:47:18.486Z,6.45
2022-08-16T15:49:56.019Z,6.55
2022-08-16T15:52:30.962Z,7.55
2022-08-16T15:55:12.754Z,6.65
2022-08-16T15:57:51.744Z,6.95
2022-08-16T16:00:23.002Z,6.90
2022-08-16T16:03:08.784Z,7.25
2022-08-16T16:05:39.547Z,6.38
2022-08-16T16:08:09.945Z,6.35
2022-08-16T16:10:40.679Z,7.25
2022-08-16T16:13:09.943Z,7.32
2022-08-16T16:15:41.182Z,7.50
2022-08-16T16:18:12.129Z,6.97
2022-08-16T16:20:49.860Z,7.80
2022-08-16T16:23:24.854Z,8.57
2022-08-16T16:25:56.607Z,7.28
2022-08-16T16:28:51.134Z,7.25
2022-08-16T16:31:21.934Z,7.47
2022-08-16T16:33:57.737Z,7.38
2022-08-16T16:36:28.740Z,8.18
2022-08-16T16:38:57.170Z,7.90
2022-08-16T16:41:27.950Z,7.25
2022-08-16T16:43:56.772Z,8.35
2022-08-16T16:46:42.396Z,7.53
2022-08-16T16:49:12.551Z,8.75
2022-08-16T16:51:44.502Z,8.52
2022-08-16T16:54:27.568Z,7.10
2022-08-16T16:56:58.469Z,8.00
2022-08-16T16:59:28.782Z,8.13
2022-08-16T17:02:38.280Z,8.38
2022-08-16T17:04:44.182Z,9.02
2022-08-16T17:07:12.166Z,8.75
2022-08-16T17:09:41.706Z,8.23
2022-08-16T17:12:14.598Z,8.02
2022-08-16T17:14:55.853Z,8.20
2022-08-16T17:17:24.187Z,9.07
2022-08-16T17:19:51.675Z,10.32
2022-08-16T17:22:21.132Z,7.68
2022-08-16T17:24:52.509Z,11.50
2022-08-16T17:27:33.429Z,10.70
2022-08-16T17:30:16.185Z,9.68
2022-08-16T17:32:55.624Z,9.85
2022-08-16T17:35:34.323Z,10.82
2022-08-16T17:38:06.131Z,10.27
2022-08-16T17:40:49.271Z,13.27
2022-08-16T17:43:37.644Z,16.02
2022-08-16T17:46:41.388Z,11.93
2022-08-16T17:49:00.931Z,12.63
2022-08-16T17:51:28.592Z,15.40
2022-08-16T17:53:56.693Z,14.43
2022-08-16T17:56:24.386Z,14.05
2022-08-16T17:58:52.713Z,15.10
2022-08-16T18:01:25.571Z,12.40
2022-08-16T18:04:08.028Z,14.23
2022-08-16T18:06:39.796Z,12.95
2022-08-16T18:09:08.372Z,13.27
2022-08-16T18:11:43.012Z,15.32
2022-08-16T18:16:41.334Z,14.35
2022-08-16T18:19:10.093Z,13.85
2022-08-16T18:21:57.023Z,15.32
2022-08-16T18:24:28.020Z,15.15
2022-08-16T18:26:55.734Z,14.77
2022-08-16T18:29:23.225Z,16.52
2022-08-16T18:31:51.400Z,16.50
2022-08-16T18:34:20.723Z,16.00
2022-08-16T18:36:48.550Z,16.73
2022-08-16T18:39:16.361Z,15.43
2022-08-16T18:41:47.247Z,15.77
2022-08-16T18:44:25.241Z,16.38
2022-08-16T18:46:55.778Z,16.10
2022-08-16T18:49:24.262Z,15.65
2022-08-16T18:51:57.303Z,15.23
2022-08-16T18:54:26.287Z,16.40
2022-08-16T18:56:57.553Z,16.25
2022-08-16T18:59:27.814Z,17.17
2022-08-16T19:02:00.253Z,17.60
2022-08-16T19:04:55.561Z,16.17
2022-08-16T19:07:30.894Z,18.33
2022-08-16T19:10:02.022Z,16.67
2022-08-16T19:12:37.909Z,17.27
2022-08-16T19:15:17.434Z,17.30
2022-08-16T19:17:46.008Z,16.50
2022-08-16T19:20:20.573Z,17.83
2022-08-16T19:23:05.813Z,17.63
2022-08-16T19:25:46.757Z,20.23
2022-08-16T19:28:51.474Z,19.65
2022-08-16T19:31:31.834Z,20.10
2022-08-16T19:34:00.678Z,18.80
2022-08-16T19:36:36.842Z,19.55
2022-08-16T19:39:11.192Z,20.60
2022-08-16T19:41:42.588Z,19.60
2022-08-16T19:44:10.274Z,20.52
2022-08-16T19:46:41.984Z,18.52
2022-08-16T19:49:09.415Z,18.58
2022-08-16T19:51:39.605Z,18.38
2022-08-16T19:54:07.129Z,18.10
2022-08-16T19:56:34.523Z,18.38
2022-08-16T19:59:21.166Z,19.15
2022-08-16T20:01:52.083Z,18.13
2022-08-16T20:04:22.045Z,18.45
2022-08-16T20:06:50.978Z,18.88
2022-08-16T20:09:21.625Z,19.23
2022-08-16T20:11:50.624Z,17.88
2022-08-16T20:14:22.663Z,17.98
2022-08-16T20:16:58.384Z,17.05
2022-08-16T20:19:27.983Z,17.23
2022-08-16T20:21:57.358Z,16.70
2022-08-16T20:24:35.712Z,16.17
2022-08-16T20:27:07.566Z,15.50
2022-08-16T20:29:37.461Z,16.75
2022-08-16T20:32:06.414Z,16.05
2022-08-16T20:34:34.265Z,17.52
2022-08-16T20:37:01.732Z,15.90
2022-08-16T20:39:29.223Z,16.73
2022-08-16T20:41:56.670Z,16.45
2022-08-16T20:44:25.231Z,15.70
2022-08-16T20:46:52.998Z,16.52
2022-08-16T20:49:20.368Z,17.10
2022-08-16T20:51:50.585Z,16.63
2022-08-16T20:54:18.595Z,18.55
2022-08-16T20:56:46.709Z,17.98
2022-08-16T20:59:14.098Z,20.05
2022-08-16T21:01:46.773Z,24.38
2022-08-16T21:04:19.657Z,28.58
2022-08-16T21:06:53.544Z,27.42
2022-08-16T21:09:30.080Z,29.77
2022-08-16T21:12:00.870Z,33.13
2022-08-16T21:14:29.770Z,37.28
2022-08-16T21:16:57.316Z,40.70
2022-08-16T21:19:25.646Z,43.92
2022-08-16T21:21:53.185Z,47.33
2022-08-16T21:24:21.406Z,52.13
2022-08-16T21:26:55.571Z,49.95
2022-08-16T21:29:28.459Z,51.97
2022-08-16T21:32:09.608Z,50.97
2022-08-16T21:34:37.135Z,53.55
2022-08-16T21:37:05.335Z,49.05
2022-08-16T21:39:32.934Z,47.67
2022-08-16T21:42:01.057Z,43.95
2022-08-16T21:44:32.533Z,47.88
2022-08-16T21:47:08.137Z,46.22
2022-08-16T21:49:36.949Z,45.00
2022-08-16T21:52:06.251Z,43.42
2022-08-16T21:54:35.882Z,39.28
2022-08-16T21:57:08.680Z,39.97
2022-08-16T21:59:38.486Z,36.83
2022-08-16T22:02:07.417Z,34.35
2022-08-16T22:04:37.652Z,32.80
2022-08-16T22:07:06.794Z,32.40
2022-08-16T22:09:34.676Z,32.55
2022-08-16T22:12:02.488Z,30.70
2022-08-16T22:14:33.010Z,33.45
2022-08-16T22:17:00.436Z,30.13
2022-08-16T22:19:28.017Z,29.40
2022-08-16T22:21:55.761Z,28.20
2022-08-16T22:24:23.122Z,28.38
2022-08-16T22:26:50.543Z,30.45
2022-08-16T22:29:18.034Z,30.63
2022-08-16T22:31:45.492Z,29.48
2022-08-16T22:34:13.705Z,30.92
2022-08-16T22:36:43.216Z,31.80
2022-08-16T22:39:14.436Z,30.05
2022-08-16T22:41:45.706Z,31.05
2022-08-16T22:44:14.184Z,30.85
2022-08-16T22:46:43.859Z,32.72
2022-08-16T22:49:13.040Z,32.78
2022-08-16T22:51:40.605Z,34.15
2022-08-16T22:54:44.007Z,34.17
2022-08-16T22:57:00.188Z,34.47
2022-08-16T22:59:29.676Z,34.78
2022-08-16T23:01:57.235Z,33.72
2022-08-16T23:04:26.430Z,34.42
2022-08-16T23:06:54.217Z,34.22
2022-08-16T23:09:22.043Z,33.38
2022-08-16T23:11:49.800Z,33.33
2022-08-16T23:14:17.711Z,33.47
2022-08-16T23:16:47.301Z,34.35
2022-08-16T23:19:16.003Z,33.33
2022-08-16T23:21:46.958Z,36.47
2022-08-16T23:24:19.502Z,35.88
2022-08-16T23:26:49.009Z,35.85
2022-08-16T23:29:24.750Z,33.97
2022-08-16T23:31:59.557Z,36.03
2022-08-16T23:34:28.387Z,37.30
2022-08-16T23:36:56.774Z,35.55
2022-08-16T23:39:24.418Z,35.33
2022-08-16T23:41:52.860Z,38.25
2022-08-16T23:44:55.451Z,37.20
2022-08-16T23:47:08.073Z,35.63
2022-08-16T23:49:58.303Z,37.25
2022-08-16T23:52:39.431Z,37.08
2022-08-16T23:55:11.209Z,37.33
2022-08-16T23:57:38.576Z,35.85
